Accueil
METAR-TAF:

METAR-TAF

Aéroports :

Aérodrome de Logrogne

Logroño, Espagne

latitude: 42-27N, longitude: 002-20W, altitude: 353 m

Observation

Le bulletin a été fait il y a 29 minutes, à 16:30 UTC
Vent 9 kt de ouest
Température 7°C
Humidité 66%
Pression 1022 hPa
Visibilité 10 km ou plus
Nuages épars à une hauteur de 4000 ft

METAR: LELO 211630Z 28009KT 9999 SCT040 07/01 Q1022

Heure: 17:59 (16:59 UTC)

Prévision

Le bulletin a été fait il y a 2 heures et 59 minutes, à 14:00 UTC
Prévision valable du 21 à 15 UTC au 21 à 24 UTC
Vent 12 kt de ouest/nord-ouest
Visibilité 10 km ou plus
Nuages épars à une hauteur de 1500 ft
Nuages épars à une hauteur de 4000 ft
Evoluant progressivement
du 21 à 17 UTC au 21 à 19 UTC
Vent 7 kt de ouest

TAF: LELO 211400Z 2115/2124 30012KT 9999 SCT015 SCT040 BECMG 2117/2119 27007KT

Observations et prévisions météorologiques de plus de 4000 aéroports (messages METAR et TAF).

Les stations disponibles sont représentées par des disques jaunes et rouges sur la carte.

Passer la souris dessus pour voir le nom de la station.

Cliquer dessus pour voir les observations et prévisions météorologiques.

Pour changer de carte: cliquez sur les boutons verts avec une croix noire pour zoomer, sur le bouton vert avec un tiret pour effectuer un zoom arrière, ou sur les flèches vertes pour les cartes adjacentes.


METAR-TAF: